sensor_id;sensor_type;location;lat;lon;timestamp;P1;durP1;ratioP1;P2;durP2;ratioP2
6344;SDS011;3205;42.666;23.264;2022-12-18T00:00:12;10.63;;;6.90;;
6344;SDS011;3205;42.666;23.264;2022-12-18T00:02:39;10.50;;;7.10;;
6344;SDS011;3205;42.666;23.264;2022-12-18T00:05:05;8.67;;;6.50;;
6344;SDS011;3205;42.666;23.264;2022-12-18T00:07:32;10.70;;;7.17;;
6344;SDS011;3205;42.666;23.264;2022-12-18T00:09:59;10.03;;;6.93;;
6344;SDS011;3205;42.666;23.264;2022-12-18T00:12:25;12.13;;;7.37;;
6344;SDS011;3205;42.666;23.264;2022-12-18T00:14:51;14.70;;;8.00;;
6344;SDS011;3205;42.666;23.264;2022-12-18T00:17:17;11.80;;;7.80;;
6344;SDS011;3205;42.666;23.264;2022-12-18T00:19:43;14.27;;;9.53;;
6344;SDS011;3205;42.666;23.264;2022-12-18T00:22:09;15.13;;;8.97;;
6344;SDS011;3205;42.666;23.264;2022-12-18T00:24:35;10.90;;;7.70;;
6344;SDS011;3205;42.666;23.264;2022-12-18T00:27:02;16.00;;;9.40;;
6344;SDS011;3205;42.666;23.264;2022-12-18T00:29:29;14.80;;;8.47;;
6344;SDS011;3205;42.666;23.264;2022-12-18T00:31:55;9.90;;;6.93;;
6344;SDS011;3205;42.666;23.264;2022-12-18T00:34:21;8.67;;;6.47;;
6344;SDS011;3205;42.666;23.264;2022-12-18T00:36:47;10.60;;;7.20;;
6344;SDS011;3205;42.666;23.264;2022-12-18T00:39:14;19.00;;;8.70;;
6344;SDS011;3205;42.666;23.264;2022-12-18T00:41:40;9.07;;;6.50;;
6344;SDS011;3205;42.666;23.264;2022-12-18T00:44:25;10.20;;;6.40;;
6344;SDS011;3205;42.666;23.264;2022-12-18T00:46:51;8.60;;;6.13;;
6344;SDS011;3205;42.666;23.264;2022-12-18T00:49:18;11.03;;;7.80;;
6344;SDS011;3205;42.666;23.264;2022-12-18T00:51:45;11.03;;;7.50;;
6344;SDS011;3205;42.666;23.264;2022-12-18T00:54:11;11.83;;;7.87;;
6344;SDS011;3205;42.666;23.264;2022-12-18T00:56:37;9.83;;;6.93;;
6344;SDS011;3205;42.666;23.264;2022-12-18T00:59:04;9.53;;;6.70;;
6344;SDS011;3205;42.666;23.264;2022-12-18T01:01:31;9.10;;;6.53;;
6344;SDS011;3205;42.666;23.264;2022-12-18T01:03:58;9.53;;;6.93;;
6344;SDS011;3205;42.666;23.264;2022-12-18T01:06:25;12.10;;;6.83;;
6344;SDS011;3205;42.666;23.264;2022-12-18T01:08:51;8.63;;;6.67;;
6344;SDS011;3205;42.666;23.264;2022-12-18T01:11:18;10.87;;;6.90;;
6344;SDS011;3205;42.666;23.264;2022-12-18T01:13:45;10.20;;;6.37;;
6344;SDS011;3205;42.666;23.264;2022-12-18T01:16:12;9.97;;;7.03;;
6344;SDS011;3205;42.666;23.264;2022-12-18T01:18:40;8.93;;;6.33;;
6344;SDS011;3205;42.666;23.264;2022-12-18T01:21:06;10.37;;;6.30;;
6344;SDS011;3205;42.666;23.264;2022-12-18T01:23:33;9.50;;;7.17;;
6344;SDS011;3205;42.666;23.264;2022-12-18T01:26:03;10.63;;;7.20;;
6344;SDS011;3205;42.666;23.264;2022-12-18T01:28:31;11.33;;;7.93;;
6344;SDS011;3205;42.666;23.264;2022-12-18T01:30:57;11.07;;;8.17;;
6344;SDS011;3205;42.666;23.264;2022-12-18T01:33:34;13.53;;;8.40;;
6344;SDS011;3205;42.666;23.264;2022-12-18T01:36:01;12.13;;;8.27;;
6344;SDS011;3205;42.666;23.264;2022-12-18T01:38:27;12.67;;;8.37;;
6344;SDS011;3205;42.666;23.264;2022-12-18T01:40:56;15.17;;;8.87;;
6344;SDS011;3205;42.666;23.264;2022-12-18T01:43:39;13.17;;;8.80;;
6344;SDS011;3205;42.666;23.264;2022-12-18T01:46:08;13.57;;;8.83;;
6344;SDS011;3205;42.666;23.264;2022-12-18T01:48:34;10.80;;;8.17;;
6344;SDS011;3205;42.666;23.264;2022-12-18T01:51:01;16.43;;;9.40;;
6344;SDS011;3205;42.666;23.264;2022-12-18T01:53:27;18.63;;;9.83;;
6344;SDS011;3205;42.666;23.264;2022-12-18T01:55:54;16.93;;;9.40;;
6344;SDS011;3205;42.666;23.264;2022-12-18T01:58:23;15.93;;;9.93;;
6344;SDS011;3205;42.666;23.264;2022-12-18T02:00:56;15.83;;;10.40;;
6344;SDS011;3205;42.666;23.264;2022-12-18T02:03:22;13.03;;;8.80;;
6344;SDS011;3205;42.666;23.264;2022-12-18T02:05:50;14.07;;;9.03;;
6344;SDS011;3205;42.666;23.264;2022-12-18T02:08:25;17.33;;;9.50;;
6344;SDS011;3205;42.666;23.264;2022-12-18T02:11:00;16.13;;;10.10;;
6344;SDS011;3205;42.666;23.264;2022-12-18T02:13:32;15.43;;;9.70;;
6344;SDS011;3205;42.666;23.264;2022-12-18T02:16:08;16.83;;;9.43;;
6344;SDS011;3205;42.666;23.264;2022-12-18T02:18:43;13.90;;;9.43;;
6344;SDS011;3205;42.666;23.264;2022-12-18T02:21:17;15.43;;;9.50;;
6344;SDS011;3205;42.666;23.264;2022-12-18T02:23:54;14.97;;;9.20;;
6344;SDS011;3205;42.666;23.264;2022-12-18T02:26:28;13.80;;;9.00;;
6344;SDS011;3205;42.666;23.264;2022-12-18T02:28:58;15.20;;;9.43;;
6344;SDS011;3205;42.666;23.264;2022-12-18T02:31:30;16.00;;;9.53;;
6344;SDS011;3205;42.666;23.264;2022-12-18T02:34:02;14.00;;;9.63;;
6344;SDS011;3205;42.666;23.264;2022-12-18T02:36:30;13.13;;;8.60;;
6344;SDS011;3205;42.666;23.264;2022-12-18T02:38:59;10.80;;;8.00;;
6344;SDS011;3205;42.666;23.264;2022-12-18T02:41:28;14.37;;;8.47;;
6344;SDS011;3205;42.666;23.264;2022-12-18T02:43:56;15.93;;;9.53;;
6344;SDS011;3205;42.666;23.264;2022-12-18T02:46:28;11.70;;;7.87;;
6344;SDS011;3205;42.666;23.264;2022-12-18T02:49:01;13.07;;;7.97;;
6344;SDS011;3205;42.666;23.264;2022-12-18T02:51:32;12.00;;;8.23;;
6344;SDS011;3205;42.666;23.264;2022-12-18T02:54:08;11.03;;;7.90;;
6344;SDS011;3205;42.666;23.264;2022-12-18T02:56:41;12.30;;;7.60;;
6344;SDS011;3205;42.666;23.264;2022-12-18T02:59:13;12.60;;;7.30;;
6344;SDS011;3205;42.666;23.264;2022-12-18T03:01:43;9.87;;;7.37;;
6344;SDS011;3205;42.666;23.264;2022-12-18T03:04:16;11.47;;;8.13;;
6344;SDS011;3205;42.666;23.264;2022-12-18T03:06:48;11.60;;;7.63;;
6344;SDS011;3205;42.666;23.264;2022-12-18T03:09:18;10.10;;;7.43;;
6344;SDS011;3205;42.666;23.264;2022-12-18T03:11:48;9.60;;;6.60;;
6344;SDS011;3205;42.666;23.264;2022-12-18T03:14:38;12.37;;;7.47;;
6344;SDS011;3205;42.666;23.264;2022-12-18T03:17:05;9.83;;;6.60;;
6344;SDS011;3205;42.666;23.264;2022-12-18T03:19:37;7.47;;;5.43;;
6344;SDS011;3205;42.666;23.264;2022-12-18T03:22:04;9.33;;;6.33;;
6344;SDS011;3205;42.666;23.264;2022-12-18T03:24:33;7.30;;;5.67;;
6344;SDS011;3205;42.666;23.264;2022-12-18T03:27:05;8.83;;;5.93;;
6344;SDS011;3205;42.666;23.264;2022-12-18T03:29:36;9.17;;;5.87;;
6344;SDS011;3205;42.666;23.264;2022-12-18T03:32:08;7.77;;;5.70;;
6344;SDS011;3205;42.666;23.264;2022-12-18T03:34:38;9.47;;;5.73;;
6344;SDS011;3205;42.666;23.264;2022-12-18T03:37:08;7.50;;;5.80;;
6344;SDS011;3205;42.666;23.264;2022-12-18T03:39:34;7.50;;;5.50;;
6344;SDS011;3205;42.666;23.264;2022-12-18T03:42:01;10.27;;;6.43;;
6344;SDS011;3205;42.666;23.264;2022-12-18T03:44:35;7.77;;;6.03;;
6344;SDS011;3205;42.666;23.264;2022-12-18T03:47:09;9.83;;;6.30;;
6344;SDS011;3205;42.666;23.264;2022-12-18T03:49:40;9.20;;;6.63;;
6344;SDS011;3205;42.666;23.264;2022-12-18T03:52:15;7.63;;;5.90;;
6344;SDS011;3205;42.666;23.264;2022-12-18T03:54:46;9.97;;;6.60;;
6344;SDS011;3205;42.666;23.264;2022-12-18T03:57:14;9.53;;;5.97;;
6344;SDS011;3205;42.666;23.264;2022-12-18T03:59:43;9.63;;;6.67;;
6344;SDS011;3205;42.666;23.264;2022-12-18T04:02:12;8.33;;;6.50;;
6344;SDS011;3205;42.666;23.264;2022-12-18T04:04:41;15.50;;;9.40;;
6344;SDS011;3205;42.666;23.264;2022-12-18T04:07:09;12.77;;;8.37;;
6344;SDS011;3205;42.666;23.264;2022-12-18T04:09:37;11.30;;;7.70;;
6344;SDS011;3205;42.666;23.264;2022-12-18T04:12:05;8.80;;;6.93;;
6344;SDS011;3205;42.666;23.264;2022-12-18T04:14:32;8.87;;;5.97;;
6344;SDS011;3205;42.666;23.264;2022-12-18T04:17:00;10.73;;;6.40;;
6344;SDS011;3205;42.666;23.264;2022-12-18T04:19:26;10.07;;;6.33;;
6344;SDS011;3205;42.666;23.264;2022-12-18T04:21:53;10.07;;;6.37;;
6344;SDS011;3205;42.666;23.264;2022-12-18T04:24:19;12.33;;;7.23;;
6344;SDS011;3205;42.666;23.264;2022-12-18T04:26:45;10.63;;;6.57;;
6344;SDS011;3205;42.666;23.264;2022-12-18T04:29:11;9.67;;;6.70;;
6344;SDS011;3205;42.666;23.264;2022-12-18T04:31:38;11.40;;;7.00;;
6344;SDS011;3205;42.666;23.264;2022-12-18T04:34:04;14.13;;;8.43;;
6344;SDS011;3205;42.666;23.264;2022-12-18T04:36:32;14.80;;;7.17;;
6344;SDS011;3205;42.666;23.264;2022-12-18T04:38:58;12.93;;;7.20;;
6344;SDS011;3205;42.666;23.264;2022-12-18T04:41:24;13.30;;;7.80;;
6344;SDS011;3205;42.666;23.264;2022-12-18T04:43:51;13.07;;;7.50;;
6344;SDS011;3205;42.666;23.264;2022-12-18T04:46:17;15.47;;;8.17;;
6344;SDS011;3205;42.666;23.264;2022-12-18T04:48:45;15.13;;;8.77;;
6344;SDS011;3205;42.666;23.264;2022-12-18T04:51:12;14.77;;;7.93;;
6344;SDS011;3205;42.666;23.264;2022-12-18T04:53:38;13.97;;;7.57;;
6344;SDS011;3205;42.666;23.264;2022-12-18T04:56:05;12.93;;;7.73;;
6344;SDS011;3205;42.666;23.264;2022-12-18T04:58:32;13.10;;;8.50;;
6344;SDS011;3205;42.666;23.264;2022-12-18T05:00:58;13.07;;;7.77;;
6344;SDS011;3205;42.666;23.264;2022-12-18T05:03:25;12.80;;;8.37;;
6344;SDS011;3205;42.666;23.264;2022-12-18T05:05:52;11.63;;;7.40;;
6344;SDS011;3205;42.666;23.264;2022-12-18T05:08:18;12.00;;;7.53;;
6344;SDS011;3205;42.666;23.264;2022-12-18T05:10:45;12.63;;;7.83;;
6344;SDS011;3205;42.666;23.264;2022-12-18T05:13:11;13.00;;;8.03;;
6344;SDS011;3205;42.666;23.264;2022-12-18T05:15:37;13.93;;;8.70;;
6344;SDS011;3205;42.666;23.264;2022-12-18T05:18:04;14.67;;;8.30;;
6344;SDS011;3205;42.666;23.264;2022-12-18T05:20:30;13.60;;;9.27;;
6344;SDS011;3205;42.666;23.264;2022-12-18T05:22:57;15.63;;;9.53;;
6344;SDS011;3205;42.666;23.264;2022-12-18T05:25:24;19.93;;;11.47;;
6344;SDS011;3205;42.666;23.264;2022-12-18T05:27:50;17.10;;;10.53;;
6344;SDS011;3205;42.666;23.264;2022-12-18T05:30:16;15.80;;;10.77;;
6344;SDS011;3205;42.666;23.264;2022-12-18T05:32:42;19.47;;;11.83;;
6344;SDS011;3205;42.666;23.264;2022-12-18T05:35:09;21.50;;;12.33;;
6344;SDS011;3205;42.666;23.264;2022-12-18T05:37:36;19.63;;;11.07;;
6344;SDS011;3205;42.666;23.264;2022-12-18T05:40:04;19.03;;;10.17;;
6344;SDS011;3205;42.666;23.264;2022-12-18T05:42:31;15.50;;;9.93;;
6344;SDS011;3205;42.666;23.264;2022-12-18T05:44:57;16.67;;;9.57;;
6344;SDS011;3205;42.666;23.264;2022-12-18T05:47:23;17.63;;;10.27;;
6344;SDS011;3205;42.666;23.264;2022-12-18T05:49:49;21.13;;;10.90;;
6344;SDS011;3205;42.666;23.264;2022-12-18T05:52:15;18.83;;;10.97;;
6344;SDS011;3205;42.666;23.264;2022-12-18T05:54:42;19.90;;;11.20;;
6344;SDS011;3205;42.666;23.264;2022-12-18T05:57:08;19.47;;;11.30;;
6344;SDS011;3205;42.666;23.264;2022-12-18T05:59:35;21.23;;;12.03;;
6344;SDS011;3205;42.666;23.264;2022-12-18T06:02:01;20.53;;;11.93;;
6344;SDS011;3205;42.666;23.264;2022-12-18T06:04:27;27.97;;;13.83;;
6344;SDS011;3205;42.666;23.264;2022-12-18T06:06:55;26.03;;;14.50;;
6344;SDS011;3205;42.666;23.264;2022-12-18T06:09:21;22.00;;;13.20;;
6344;SDS011;3205;42.666;23.264;2022-12-18T06:11:48;20.53;;;11.80;;
6344;SDS011;3205;42.666;23.264;2022-12-18T06:14:14;17.97;;;10.30;;
6344;SDS011;3205;42.666;23.264;2022-12-18T06:16:42;18.83;;;11.23;;
6344;SDS011;3205;42.666;23.264;2022-12-18T06:19:12;17.90;;;11.37;;
6344;SDS011;3205;42.666;23.264;2022-12-18T06:21:41;19.27;;;10.53;;
6344;SDS011;3205;42.666;23.264;2022-12-18T06:24:07;20.17;;;11.20;;
6344;SDS011;3205;42.666;23.264;2022-12-18T06:26:33;19.53;;;10.93;;
6344;SDS011;3205;42.666;23.264;2022-12-18T06:28:59;22.50;;;11.27;;
6344;SDS011;3205;42.666;23.264;2022-12-18T06:31:26;20.50;;;11.33;;
6344;SDS011;3205;42.666;23.264;2022-12-18T06:33:53;21.13;;;12.50;;
6344;SDS011;3205;42.666;23.264;2022-12-18T06:36:19;19.80;;;11.10;;
6344;SDS011;3205;42.666;23.264;2022-12-18T06:38:46;20.13;;;11.77;;
6344;SDS011;3205;42.666;23.264;2022-12-18T06:41:13;20.77;;;11.17;;
6344;SDS011;3205;42.666;23.264;2022-12-18T06:43:41;19.00;;;10.27;;
6344;SDS011;3205;42.666;23.264;2022-12-18T06:46:08;17.27;;;10.30;;
6344;SDS011;3205;42.666;23.264;2022-12-18T06:48:35;21.20;;;12.03;;
6344;SDS011;3205;42.666;23.264;2022-12-18T06:51:02;21.53;;;11.03;;
6344;SDS011;3205;42.666;23.264;2022-12-18T06:53:29;21.03;;;12.20;;
6344;SDS011;3205;42.666;23.264;2022-12-18T06:55:59;19.67;;;11.70;;
6344;SDS011;3205;42.666;23.264;2022-12-18T06:58:26;20.97;;;11.83;;
6344;SDS011;3205;42.666;23.264;2022-12-18T07:00:53;21.80;;;11.57;;
6344;SDS011;3205;42.666;23.264;2022-12-18T07:03:19;22.57;;;12.27;;
6344;SDS011;3205;42.666;23.264;2022-12-18T07:05:46;22.23;;;11.77;;
6344;SDS011;3205;42.666;23.264;2022-12-18T07:08:12;25.20;;;12.60;;
6344;SDS011;3205;42.666;23.264;2022-12-18T07:10:40;20.90;;;12.03;;
6344;SDS011;3205;42.666;23.264;2022-12-18T07:13:08;22.10;;;12.20;;
6344;SDS011;3205;42.666;23.264;2022-12-18T07:15:35;19.50;;;11.60;;
6344;SDS011;3205;42.666;23.264;2022-12-18T07:18:01;21.03;;;11.60;;
6344;SDS011;3205;42.666;23.264;2022-12-18T07:20:27;22.43;;;11.20;;
6344;SDS011;3205;42.666;23.264;2022-12-18T07:22:54;20.30;;;11.70;;
6344;SDS011;3205;42.666;23.264;2022-12-18T07:25:20;23.63;;;12.40;;
6344;SDS011;3205;42.666;23.264;2022-12-18T07:27:46;21.87;;;12.27;;
6344;SDS011;3205;42.666;23.264;2022-12-18T07:30:13;21.30;;;11.70;;
6344;SDS011;3205;42.666;23.264;2022-12-18T07:32:39;21.73;;;11.77;;
6344;SDS011;3205;42.666;23.264;2022-12-18T07:35:05;22.83;;;13.13;;
6344;SDS011;3205;42.666;23.264;2022-12-18T07:37:32;27.53;;;13.37;;
6344;SDS011;3205;42.666;23.264;2022-12-18T07:39:59;23.33;;;12.77;;
6344;SDS011;3205;42.666;23.264;2022-12-18T07:42:25;23.30;;;12.93;;
6344;SDS011;3205;42.666;23.264;2022-12-18T07:44:57;21.67;;;12.57;;
6344;SDS011;3205;42.666;23.264;2022-12-18T07:47:23;22.33;;;12.53;;
6344;SDS011;3205;42.666;23.264;2022-12-18T07:49:49;21.90;;;12.00;;
6344;SDS011;3205;42.666;23.264;2022-12-18T07:52:16;24.50;;;13.80;;
6344;SDS011;3205;42.666;23.264;2022-12-18T07:54:42;24.27;;;13.43;;
6344;SDS011;3205;42.666;23.264;2022-12-18T07:57:09;25.57;;;13.57;;
6344;SDS011;3205;42.666;23.264;2022-12-18T07:59:35;30.37;;;15.33;;
6344;SDS011;3205;42.666;23.264;2022-12-18T08:02:01;28.00;;;15.17;;
6344;SDS011;3205;42.666;23.264;2022-12-18T08:04:28;29.33;;;14.37;;
6344;SDS011;3205;42.666;23.264;2022-12-18T08:06:54;24.53;;;13.57;;
6344;SDS011;3205;42.666;23.264;2022-12-18T08:09:20;28.77;;;14.93;;
6344;SDS011;3205;42.666;23.264;2022-12-18T08:11:46;29.37;;;14.87;;
6344;SDS011;3205;42.666;23.264;2022-12-18T08:14:13;25.83;;;13.73;;
6344;SDS011;3205;42.666;23.264;2022-12-18T08:16:40;28.57;;;15.10;;
6344;SDS011;3205;42.666;23.264;2022-12-18T08:19:06;30.43;;;16.53;;
6344;SDS011;3205;42.666;23.264;2022-12-18T08:21:32;30.07;;;15.43;;
6344;SDS011;3205;42.666;23.264;2022-12-18T08:23:59;32.57;;;15.40;;
6344;SDS011;3205;42.666;23.264;2022-12-18T08:26:27;29.93;;;15.90;;
6344;SDS011;3205;42.666;23.264;2022-12-18T08:28:56;26.97;;;15.50;;
6344;SDS011;3205;42.666;23.264;2022-12-18T08:31:25;37.57;;;16.37;;
6344;SDS011;3205;42.666;23.264;2022-12-18T08:33:53;32.80;;;16.33;;
6344;SDS011;3205;42.666;23.264;2022-12-18T08:36:20;31.93;;;16.97;;
6344;SDS011;3205;42.666;23.264;2022-12-18T08:38:46;37.43;;;20.17;;
6344;SDS011;3205;42.666;23.264;2022-12-18T08:41:13;39.43;;;17.73;;
6344;SDS011;3205;42.666;23.264;2022-12-18T08:43:41;39.07;;;18.20;;
6344;SDS011;3205;42.666;23.264;2022-12-18T08:46:26;30.20;;;17.13;;
6344;SDS011;3205;42.666;23.264;2022-12-18T08:48:56;33.40;;;17.63;;
6344;SDS011;3205;42.666;23.264;2022-12-18T08:51:25;36.07;;;17.03;;
6344;SDS011;3205;42.666;23.264;2022-12-18T08:53:51;37.33;;;18.67;;
6344;SDS011;3205;42.666;23.264;2022-12-18T08:56:17;35.03;;;18.30;;
6344;SDS011;3205;42.666;23.264;2022-12-18T08:58:43;32.57;;;16.40;;
6344;SDS011;3205;42.666;23.264;2022-12-18T09:01:10;31.73;;;16.30;;
6344;SDS011;3205;42.666;23.264;2022-12-18T09:03:38;33.23;;;16.03;;
6344;SDS011;3205;42.666;23.264;2022-12-18T09:06:05;31.80;;;17.23;;
6344;SDS011;3205;42.666;23.264;2022-12-18T09:08:35;34.83;;;18.57;;
6344;SDS011;3205;42.666;23.264;2022-12-18T09:11:01;44.67;;;18.43;;
6344;SDS011;3205;42.666;23.264;2022-12-18T09:13:28;38.73;;;18.17;;
6344;SDS011;3205;42.666;23.264;2022-12-18T09:15:54;33.23;;;17.93;;
6344;SDS011;3205;42.666;23.264;2022-12-18T09:18:21;43.60;;;19.60;;
6344;SDS011;3205;42.666;23.264;2022-12-18T09:20:49;33.33;;;18.23;;
6344;SDS011;3205;42.666;23.264;2022-12-18T09:23:17;33.10;;;17.07;;
6344;SDS011;3205;42.666;23.264;2022-12-18T09:25:43;40.00;;;18.57;;
6344;SDS011;3205;42.666;23.264;2022-12-18T09:28:10;35.20;;;17.53;;
6344;SDS011;3205;42.666;23.264;2022-12-18T09:30:41;34.20;;;17.27;;
6344;SDS011;3205;42.666;23.264;2022-12-18T09:33:09;30.63;;;16.63;;
6344;SDS011;3205;42.666;23.264;2022-12-18T09:35:43;30.73;;;16.67;;
6344;SDS011;3205;42.666;23.264;2022-12-18T09:38:12;31.27;;;16.43;;
6344;SDS011;3205;42.666;23.264;2022-12-18T09:40:40;33.30;;;15.50;;
6344;SDS011;3205;42.666;23.264;2022-12-18T09:43:10;30.67;;;15.80;;
6344;SDS011;3205;42.666;23.264;2022-12-18T09:45:44;31.23;;;16.47;;
6344;SDS011;3205;42.666;23.264;2022-12-18T09:48:14;32.40;;;15.73;;
6344;SDS011;3205;42.666;23.264;2022-12-18T09:50:44;28.60;;;15.73;;
6344;SDS011;3205;42.666;23.264;2022-12-18T09:53:14;33.03;;;15.17;;
6344;SDS011;3205;42.666;23.264;2022-12-18T09:55:45;32.47;;;15.67;;
6344;SDS011;3205;42.666;23.264;2022-12-18T09:58:15;35.07;;;17.07;;
6344;SDS011;3205;42.666;23.264;2022-12-18T10:00:46;31.17;;;15.90;;
6344;SDS011;3205;42.666;23.264;2022-12-18T10:03:12;26.13;;;14.03;;
6344;SDS011;3205;42.666;23.264;2022-12-18T10:05:41;28.27;;;14.33;;
6344;SDS011;3205;42.666;23.264;2022-12-18T10:08:18;30.87;;;15.10;;
6344;SDS011;3205;42.666;23.264;2022-12-18T10:10:51;30.00;;;14.77;;
6344;SDS011;3205;42.666;23.264;2022-12-18T10:13:23;26.53;;;13.43;;
6344;SDS011;3205;42.666;23.264;2022-12-18T10:16:03;26.33;;;14.50;;
6344;SDS011;3205;42.666;23.264;2022-12-18T10:18:46;31.23;;;14.73;;
6344;SDS011;3205;42.666;23.264;2022-12-18T10:21:24;28.87;;;14.53;;
6344;SDS011;3205;42.666;23.264;2022-12-18T10:23:58;28.63;;;15.23;;
6344;SDS011;3205;42.666;23.264;2022-12-18T10:26:34;30.07;;;14.53;;
6344;SDS011;3205;42.666;23.264;2022-12-18T10:29:00;26.67;;;15.03;;
6344;SDS011;3205;42.666;23.264;2022-12-18T10:31:27;33.07;;;15.77;;
6344;SDS011;3205;42.666;23.264;2022-12-18T10:33:53;28.13;;;14.80;;
6344;SDS011;3205;42.666;23.264;2022-12-18T10:36:20;29.77;;;14.17;;
6344;SDS011;3205;42.666;23.264;2022-12-18T10:38:46;20.80;;;12.33;;
6344;SDS011;3205;42.666;23.264;2022-12-18T10:41:23;23.97;;;13.67;;
6344;SDS011;3205;42.666;23.264;2022-12-18T10:44:09;22.70;;;12.50;;
6344;SDS011;3205;42.666;23.264;2022-12-18T10:46:38;24.37;;;13.43;;
6344;SDS011;3205;42.666;23.264;2022-12-18T10:49:04;26.33;;;12.70;;
6344;SDS011;3205;42.666;23.264;2022-12-18T10:51:31;26.43;;;13.20;;
6344;SDS011;3205;42.666;23.264;2022-12-18T10:53:59;28.03;;;13.70;;
6344;SDS011;3205;42.666;23.264;2022-12-18T10:56:29;21.57;;;12.20;;
6344;SDS011;3205;42.666;23.264;2022-12-18T10:58:58;26.10;;;12.60;;
6344;SDS011;3205;42.666;23.264;2022-12-18T11:01:26;23.93;;;11.10;;
6344;SDS011;3205;42.666;23.264;2022-12-18T11:04:07;21.73;;;12.00;;
6344;SDS011;3205;42.666;23.264;2022-12-18T11:06:35;24.97;;;10.83;;
6344;SDS011;3205;42.666;23.264;2022-12-18T11:09:20;24.67;;;12.50;;
6344;SDS011;3205;42.666;23.264;2022-12-18T11:11:48;23.30;;;12.50;;
6344;SDS011;3205;42.666;23.264;2022-12-18T11:14:18;24.73;;;13.40;;
6344;SDS011;3205;42.666;23.264;2022-12-18T11:16:48;22.37;;;12.13;;
6344;SDS011;3205;42.666;23.264;2022-12-18T11:19:26;20.83;;;11.10;;
6344;SDS011;3205;42.666;23.264;2022-12-18T11:21:57;20.50;;;11.17;;
6344;SDS011;3205;42.666;23.264;2022-12-18T11:24:26;18.37;;;10.83;;
6344;SDS011;3205;42.666;23.264;2022-12-18T11:26:56;25.73;;;11.73;;
6344;SDS011;3205;42.666;23.264;2022-12-18T11:29:24;24.13;;;11.73;;
6344;SDS011;3205;42.666;23.264;2022-12-18T11:32:10;21.37;;;10.60;;
6344;SDS011;3205;42.666;23.264;2022-12-18T11:34:50;19.57;;;10.93;;
6344;SDS011;3205;42.666;23.264;2022-12-18T11:37:23;19.80;;;10.77;;
6344;SDS011;3205;42.666;23.264;2022-12-18T11:39:51;21.30;;;10.27;;
6344;SDS011;3205;42.666;23.264;2022-12-18T11:42:24;20.20;;;10.43;;
6344;SDS011;3205;42.666;23.264;2022-12-18T11:44:58;22.27;;;10.23;;
6344;SDS011;3205;42.666;23.264;2022-12-18T11:47:28;20.73;;;10.33;;
6344;SDS011;3205;42.666;23.264;2022-12-18T11:50:03;21.73;;;11.27;;
6344;SDS011;3205;42.666;23.264;2022-12-18T11:52:37;20.67;;;10.67;;
6344;SDS011;3205;42.666;23.264;2022-12-18T11:55:09;25.33;;;11.63;;
6344;SDS011;3205;42.666;23.264;2022-12-18T11:57:39;22.07;;;11.33;;
6344;SDS011;3205;42.666;23.264;2022-12-18T12:00:15;24.63;;;12.50;;
6344;SDS011;3205;42.666;23.264;2022-12-18T12:02:49;21.13;;;11.87;;
6344;SDS011;3205;42.666;23.264;2022-12-18T12:05:44;25.07;;;11.73;;
6344;SDS011;3205;42.666;23.264;2022-12-18T12:08:21;23.33;;;12.27;;
6344;SDS011;3205;42.666;23.264;2022-12-18T12:10:57;24.40;;;12.80;;
6344;SDS011;3205;42.666;23.264;2022-12-18T12:13:34;21.27;;;11.83;;
6344;SDS011;3205;42.666;23.264;2022-12-18T12:16:12;24.00;;;11.20;;
6344;SDS011;3205;42.666;23.264;2022-12-18T12:18:47;24.80;;;11.90;;
6344;SDS011;3205;42.666;23.264;2022-12-18T12:21:27;24.90;;;12.50;;
6344;SDS011;3205;42.666;23.264;2022-12-18T12:24:01;25.40;;;13.30;;
6344;SDS011;3205;42.666;23.264;2022-12-18T12:26:38;25.47;;;11.97;;
6344;SDS011;3205;42.666;23.264;2022-12-18T12:29:21;25.17;;;12.87;;
6344;SDS011;3205;42.666;23.264;2022-12-18T12:32:02;25.27;;;12.00;;
6344;SDS011;3205;42.666;23.264;2022-12-18T12:34:38;23.83;;;12.57;;
6344;SDS011;3205;42.666;23.264;2022-12-18T12:37:20;23.63;;;12.30;;
6344;SDS011;3205;42.666;23.264;2022-12-18T12:39:55;23.83;;;13.00;;
6344;SDS011;3205;42.666;23.264;2022-12-18T12:42:23;28.90;;;13.63;;
6344;SDS011;3205;42.666;23.264;2022-12-18T12:45:16;28.60;;;14.40;;
6344;SDS011;3205;42.666;23.264;2022-12-18T12:47:48;26.90;;;13.87;;
6344;SDS011;3205;42.666;23.264;2022-12-18T12:50:17;27.27;;;14.67;;
6344;SDS011;3205;42.666;23.264;2022-12-18T12:52:46;27.60;;;13.83;;
6344;SDS011;3205;42.666;23.264;2022-12-18T12:55:16;23.53;;;13.33;;
6344;SDS011;3205;42.666;23.264;2022-12-18T12:57:46;28.43;;;13.80;;
6344;SDS011;3205;42.666;23.264;2022-12-18T13:00:21;28.30;;;14.87;;
6344;SDS011;3205;42.666;23.264;2022-12-18T13:02:50;26.23;;;14.40;;
6344;SDS011;3205;42.666;23.264;2022-12-18T13:05:25;29.07;;;14.53;;
6344;SDS011;3205;42.666;23.264;2022-12-18T13:07:57;29.53;;;13.93;;
6344;SDS011;3205;42.666;23.264;2022-12-18T13:10:32;26.53;;;12.40;;
6344;SDS011;3205;42.666;23.264;2022-12-18T13:13:00;28.57;;;13.93;;
6344;SDS011;3205;42.666;23.264;2022-12-18T13:15:31;24.77;;;13.43;;
6344;SDS011;3205;42.666;23.264;2022-12-18T13:18:15;27.53;;;14.27;;
6344;SDS011;3205;42.666;23.264;2022-12-18T13:20:47;26.70;;;12.90;;
6344;SDS011;3205;42.666;23.264;2022-12-18T13:23:27;28.40;;;14.27;;
6344;SDS011;3205;42.666;23.264;2022-12-18T13:25:58;27.07;;;14.20;;
6344;SDS011;3205;42.666;23.264;2022-12-18T13:34:30;25.90;;;13.30;;
6344;SDS011;3205;42.666;23.264;2022-12-18T13:36:56;22.43;;;11.60;;
6344;SDS011;3205;42.666;23.264;2022-12-18T13:39:46;24.10;;;12.30;;
6344;SDS011;3205;42.666;23.264;2022-12-18T13:48:17;29.47;;;14.23;;
6344;SDS011;3205;42.666;23.264;2022-12-18T13:50:49;29.30;;;14.10;;
6344;SDS011;3205;42.666;23.264;2022-12-18T13:53:20;29.90;;;14.50;;
6344;SDS011;3205;42.666;23.264;2022-12-18T13:55:49;28.10;;;13.77;;
6344;SDS011;3205;42.666;23.264;2022-12-18T13:58:16;25.57;;;13.73;;
6344;SDS011;3205;42.666;23.264;2022-12-18T14:00:42;30.07;;;13.23;;
6344;SDS011;3205;42.666;23.264;2022-12-18T14:03:15;30.30;;;13.93;;
6344;SDS011;3205;42.666;23.264;2022-12-18T14:05:44;31.27;;;14.50;;
6344;SDS011;3205;42.666;23.264;2022-12-18T14:08:12;35.93;;;16.20;;
6344;SDS011;3205;42.666;23.264;2022-12-18T14:10:41;23.90;;;12.90;;
6344;SDS011;3205;42.666;23.264;2022-12-18T14:13:09;29.27;;;14.53;;
6344;SDS011;3205;42.666;23.264;2022-12-18T14:15:41;27.57;;;13.83;;
6344;SDS011;3205;42.666;23.264;2022-12-18T14:18:14;28.23;;;14.23;;
6344;SDS011;3205;42.666;23.264;2022-12-18T14:20:46;27.10;;;13.23;;
6344;SDS011;3205;42.666;23.264;2022-12-18T14:23:30;28.33;;;14.40;;
6344;SDS011;3205;42.666;23.264;2022-12-18T14:25:59;24.27;;;12.73;;
6344;SDS011;3205;42.666;23.264;2022-12-18T14:28:27;25.63;;;12.80;;
6344;SDS011;3205;42.666;23.264;2022-12-18T14:30:54;22.23;;;11.97;;
6344;SDS011;3205;42.666;23.264;2022-12-18T14:33:21;21.13;;;11.47;;
6344;SDS011;3205;42.666;23.264;2022-12-18T14:35:55;26.43;;;12.73;;
6344;SDS011;3205;42.666;23.264;2022-12-18T14:38:24;28.33;;;13.47;;
6344;SDS011;3205;42.666;23.264;2022-12-18T14:40:53;27.87;;;14.00;;
6344;SDS011;3205;42.666;23.264;2022-12-18T14:43:21;30.40;;;13.73;;
6344;SDS011;3205;42.666;23.264;2022-12-18T14:45:48;29.33;;;14.37;;
6344;SDS011;3205;42.666;23.264;2022-12-18T14:48:17;35.40;;;16.13;;
6344;SDS011;3205;42.666;23.264;2022-12-18T14:50:45;37.07;;;15.17;;
6344;SDS011;3205;42.666;23.264;2022-12-18T14:53:21;29.60;;;14.07;;
6344;SDS011;3205;42.666;23.264;2022-12-18T14:55:54;26.80;;;13.73;;
6344;SDS011;3205;42.666;23.264;2022-12-18T14:58:20;33.97;;;15.43;;
6344;SDS011;3205;42.666;23.264;2022-12-18T15:00:47;30.60;;;14.30;;
6344;SDS011;3205;42.666;23.264;2022-12-18T15:03:15;35.97;;;16.47;;
6344;SDS011;3205;42.666;23.264;2022-12-18T15:05:44;39.80;;;16.50;;